Time;durP1;ratioP1;P1;durP2;ratioP2;P2;SDS_P1;SDS_P2;PMS_P1;PMS_P2;Temp;Humidity;BMP_temperature;BMP_pressure;BME280_temperature;BME280_humidity;BME280_pressure;Samples;Min_cycle;Max_cycle;Signal;HPM_P1;HPM_P2
2023/03/30 00:02:21;;;;;;;1999.90;999.90;;;12.80;99.90;;;;;;4938641;29;20051;-87
2023/03/30 00:04:51;;;;;;;1606.75;526.47;;;13.00;99.90;;;;;;4925603;28;20059;-88
2023/03/30 00:07:18;;;;;;;1999.90;999.90;;;13.30;99.90;;;;;;4922906;29;20094;-87
2023/03/30 00:09:45;;;;;;;1999.90;999.90;;;12.90;99.90;;;;;;4926412;29;20055;-87
2023/03/30 00:12:12;;;;;;;1999.90;999.90;;;13.30;99.90;;;;;;4933370;29;20129;-87
2023/03/30 00:14:41;;;;;;;1999.90;999.90;;;12.90;99.90;;;;;;4952118;29;20105;-87
2023/03/30 00:17:07;;;;;;;1999.90;999.90;;;12.70;99.90;;;;;;4948542;28;20047;-87
2023/03/30 00:19:36;;;;;;;1999.90;999.90;;;13.10;99.90;;;;;;4925688;29;20409;-87
2023/03/30 00:22:07;;;;;;;1999.90;999.90;;;13.00;99.90;;;;;;4923279;28;20059;-87
2023/03/30 00:24:34;;;;;;;1999.90;999.90;;;13.00;99.90;;;;;;4950902;28;20059;-86
2023/03/30 00:27:00;;;;;;;1999.90;999.90;;;12.70;99.90;;;;;;4933632;28;20059;-87
2023/03/30 00:29:26;;;;;;;1999.90;999.90;;;12.80;99.90;;;;;;4925813;29;20416;-87
2023/03/30 00:31:52;;;;;;;1999.90;999.90;;;12.70;99.90;;;;;;4947800;29;20047;-85
2023/03/30 00:34:18;;;;;;;1999.90;999.90;;;12.60;99.90;;;;;;4946516;29;20047;-86
2023/03/30 00:36:45;;;;;;;1999.90;999.90;;;13.20;99.90;;;;;;4914768;29;20048;-86
2023/03/30 00:39:12;;;;;;;1999.90;999.90;;;13.00;99.90;;;;;;4921151;29;20047;-87
2023/03/30 00:41:38;;;;;;;1999.90;999.90;;;12.80;99.90;;;;;;4943230;29;20054;-86
2023/03/30 00:44:41;;;;;;;1999.90;999.90;;;13.00;99.90;;;;;;4939822;28;20106;-86
2023/03/30 00:47:07;;;;;;;1999.90;999.90;;;13.20;99.90;;;;;;4936021;29;20394;-86
2023/03/30 00:49:33;;;;;;;1999.90;999.90;;;12.90;99.90;;;;;;4949435;29;20052;-85
2023/03/30 00:51:59;;;;;;;1999.90;999.90;;;12.90;99.90;;;;;;4943892;29;20052;-86
2023/03/30 00:54:25;;;;;;;1999.90;999.90;;;12.80;99.90;;;;;;4951639;28;20051;-86
2023/03/30 00:56:51;;;;;;;1999.90;999.90;;;13.30;99.90;;;;;;4932211;29;20103;-86
2023/03/30 00:59:17;;;;;;;1999.90;999.90;;;13.30;99.90;;;;;;4944465;29;20051;-86
2023/03/30 01:01:48;;;;;;;1999.90;999.90;;;13.20;99.90;;;;;;4943492;28;20049;-86
2023/03/30 01:04:16;;;;;;;1999.90;725.25;;;12.90;99.90;;;;;;4940086;28;20055;-86
2023/03/30 01:06:45;;;;;;;1999.90;999.90;;;13.10;99.90;;;;;;4957253;28;20035;-86
2023/03/30 01:09:12;;;;;;;1999.90;999.90;;;12.90;99.90;;;;;;4950220;28;20456;-87
2023/03/30 01:11:38;;;;;;;1999.90;857.97;;;13.00;99.90;;;;;;4956581;29;20047;-87
2023/03/30 01:14:07;;;;;;;1999.90;999.90;;;13.10;99.90;;;;;;4938950;28;20043;-87
2023/03/30 01:16:36;;;;;;;1999.90;999.90;;;12.90;99.90;;;;;;4951885;29;20043;-85
2023/03/30 01:19:42;;;;;;;1999.90;999.90;;;13.30;99.90;;;;;;4937842;29;20106;-87
2023/03/30 01:22:33;;;;;;;1999.90;999.90;;;13.00;99.90;;;;;;4937657;29;20052;-87
2023/03/30 01:25:35;;;;;;;1999.90;544.15;;;13.20;99.90;;;;;;4941320;29;20059;-86
2023/03/30 01:28:24;;;;;;;1999.90;501.95;;;13.20;99.90;;;;;;4915424;29;20158;-87
2023/03/30 01:31:24;;;;;;;1999.90;803.47;;;13.10;99.90;;;;;;4944945;29;20051;-85
2023/03/30 01:34:11;;;;;;;1999.90;517.05;;;13.10;99.90;;;;;;4942260;29;20087;-83
2023/03/30 01:36:44;;;;;;;1999.90;999.90;;;13.20;99.90;;;;;;4956603;29;20478;-84
2023/03/30 01:39:34;;;;;;;1999.90;999.90;;;13.30;99.90;;;;;;4951761;28;20118;-85
2023/03/30 01:42:05;;;;;;;1999.90;620.50;;;13.30;99.90;;;;;;4955681;28;20066;-86
2023/03/30 01:44:47;;;;;;;1999.90;999.90;;;13.30;99.90;;;;;;4946758;29;20106;-86
2023/03/30 01:47:15;;;;;;;1999.90;999.90;;;13.20;99.90;;;;;;4949895;28;20055;-85
2023/03/30 01:49:45;;;;;;;1999.90;999.90;;;13.00;99.90;;;;;;4936210;29;20086;-88
2023/03/30 01:52:20;;;;;;;1999.90;999.90;;;13.00;99.90;;;;;;4923287;29;20074;-86
2023/03/30 01:55:14;;;;;;;1999.90;999.90;;;13.20;99.90;;;;;;4933870;29;20043;-85
2023/03/30 01:57:50;;;;;;;1999.90;999.90;;;13.20;99.90;;;;;;4906377;29;20467;-85
2023/03/30 02:00:21;;;;;;;1999.90;999.90;;;13.00;99.90;;;;;;4922649;28;20055;-86
2023/03/30 02:02:53;;;;;;;1999.90;999.90;;;13.10;99.90;;;;;;4917335;29;20442;-86
2023/03/30 02:05:21;;;;;;;1999.90;999.90;;;13.10;99.90;;;;;;4930986;28;20460;-86
2023/03/30 02:08:00;;;;;;;1999.90;999.90;;;13.00;99.90;;;;;;4934581;29;20059;-87
2023/03/30 02:10:31;;;;;;;1999.90;747.60;;;13.00;99.90;;;;;;4936940;29;20445;-86
2023/03/30 02:12:59;;;;;;;1999.90;700.05;;;12.80;99.90;;;;;;4935501;29;20051;-85
2023/03/30 02:15:26;;;;;;;;;;;14.60;99.90;;;;;;4934422;29;20043;-86
2023/03/30 02:17:53;;;;;;;1999.90;562.50;;;12.80;99.90;;;;;;4956261;28;19981;-86
2023/03/30 02:20:18;;;;;;;1999.90;619.92;;;12.80;99.90;;;;;;4955688;29;20090;-86
2023/03/30 02:22:45;;;;;;;1999.90;679.47;;;12.80;99.90;;;;;;4935549;29;20103;-86
2023/03/30 02:25:12;;;;;;;1999.90;999.90;;;12.80;99.90;;;;;;4948090;28;20098;-86
2023/03/30 02:27:38;;;;;;;1999.90;696.25;;;12.60;88.20;;;;;;4949351;29;20515;-86
2023/03/30 02:30:06;;;;;;;1999.90;612.13;;;12.70;1.00;;;;;;4944876;29;20056;-86
2023/03/30 02:32:39;;;;;;;1999.90;999.90;;;12.80;99.90;;;;;;4916841;29;20502;-85
2023/03/30 02:35:14;;;;;;;1999.90;817.22;;;12.70;99.90;;;;;;4940069;29;20086;-85
2023/03/30 02:37:52;;;;;;;1999.90;903.80;;;12.60;1.00;;;;;;4936302;28;20452;-85
2023/03/30 02:41:20;;;;;;;1999.90;722.38;;;12.60;99.90;;;;;;4949540;29;20057;-85
2023/03/30 02:44:07;;;;;;;1999.90;999.90;;;12.70;1.00;;;;;;4875124;29;20134;-86
2023/03/30 02:46:50;;;;;;;1999.90;999.90;;;12.60;1.00;;;;;;4931437;29;20078;-86
2023/03/30 02:49:40;;;;;;;1999.90;690.97;;;12.70;1.00;;;;;;4955461;29;20389;-84
2023/03/30 02:52:10;;;;;;;1999.90;999.90;;;12.70;1.00;;;;;;4915702;29;20047;-85
2023/03/30 02:54:54;;;;;;;1999.90;999.90;;;12.70;99.90;;;;;;4927916;29;20050;-85
2023/03/30 02:57:34;;;;;;;1999.90;999.90;;;12.70;1.00;;;;;;4928248;29;20046;-84
2023/03/30 03:00:16;;;;;;;1999.90;999.90;;;12.70;1.00;;;;;;4929273;28;20469;-85
2023/03/30 03:02:56;;;;;;;1999.90;523.55;;;12.60;99.90;;;;;;4928034;29;20043;-84
2023/03/30 03:05:23;;;;;;;1999.90;721.60;;;12.70;9.10;;;;;;4934508;29;20051;-84
2023/03/30 03:07:49;;;;;;;1999.90;881.33;;;12.70;99.90;;;;;;4929987;29;20496;-84
2023/03/30 03:10:14;;;;;;;1999.90;856.63;;;12.70;24.30;;;;;;4953536;29;20090;-84
2023/03/30 03:12:42;;;;;;;1999.90;999.90;;;12.70;1.00;;;;;;4948269;28;20373;-84
2023/03/30 03:15:08;;;;;;;1999.90;749.72;;;12.60;1.00;;;;;;4954810;28;20126;-85
2023/03/30 03:17:34;;;;;;;1999.90;454.90;;;12.70;99.90;;;;;;4918497;29;20126;-86
2023/03/30 03:20:01;;;;;;;1999.90;599.83;;;12.60;99.90;;;;;;4952365;29;20047;-85
2023/03/30 03:22:27;;;;;;;1999.90;748.85;;;12.60;99.90;;;;;;4943604;28;20056;-85
2023/03/30 03:24:53;;;;;;;1999.90;551.85;;;12.60;99.90;;;;;;4918834;29;20362;-85
2023/03/30 03:27:18;;;;;;;1999.90;727.25;;;12.50;99.90;;;;;;4953773;28;20121;-85
2023/03/30 03:29:44;;;;;;;1999.90;864.42;;;12.50;1.00;;;;;;4939834;28;20051;-86
2023/03/30 03:32:09;;;;;;;1999.90;680.88;;;12.60;99.90;;;;;;4953242;29;20071;-85
2023/03/30 03:34:35;;;;;;;1999.90;652.38;;;12.50;99.90;;;;;;4938085;29;20044;-83
2023/03/30 03:37:04;;;;;;;1999.90;744.10;;;12.60;99.90;;;;;;4935567;29;20408;-84
2023/03/30 03:39:30;;;;;;;1999.90;618.22;;;12.60;99.90;;;;;;4941602;29;20091;-83
2023/03/30 03:41:56;;;;;;;1999.90;756.65;;;12.70;99.90;;;;;;4952014;28;20094;-84
2023/03/30 03:44:22;;;;;;;1999.90;881.05;;;12.80;99.90;;;;;;4942084;29;20052;-83
2023/03/30 03:46:47;;;;;;;1999.90;651.10;;;12.80;99.90;;;;;;4929972;29;20048;-83
2023/03/30 03:49:13;;;;;;;1999.90;660.08;;;12.70;99.90;;;;;;4935077;29;20086;-83
2023/03/30 03:51:39;;;;;;;1999.90;902.85;;;12.70;99.90;;;;;;4933408;29;20115;-83
2023/03/30 03:54:05;;;;;;;1999.90;893.67;;;12.70;99.90;;;;;;4948427;29;20047;-84
2023/03/30 03:56:32;;;;;;;1999.90;999.90;;;12.80;96.70;;;;;;4952231;29;20372;-84
2023/03/30 03:58:57;;;;;;;1999.90;730.00;;;12.70;68.10;;;;;;4933505;28;20051;-85
2023/03/30 04:01:23;;;;;;;1999.90;363.60;;;12.80;1.00;;;;;;4929930;29;20051;-87
2023/03/30 04:03:49;;;;;;;1999.90;999.90;;;12.80;1.00;;;;;;4923766;29;20110;-84
2023/03/30 04:06:14;;;;;;;1999.90;663.38;;;12.80;1.00;;;;;;4924948;29;20131;-84
2023/03/30 04:08:40;;;;;;;1999.90;999.90;;;12.80;1.00;;;;;;4926878;29;20575;-83
2023/03/30 04:11:08;;;;;;;1999.90;761.70;;;12.80;1.00;;;;;;4923537;29;20074;-85
2023/03/30 04:13:34;;;;;;;1999.90;659.20;;;12.80;1.00;;;;;;4924865;29;20052;-84
2023/03/30 04:16:00;;;;;;;1999.90;579.60;;;12.80;2.70;;;;;;4923971;29;20044;-84
2023/03/30 04:18:30;;;;;;;1999.90;865.03;;;12.90;1.00;;;;;;4934315;29;20047;-84
2023/03/30 04:21:06;;;;;;;1999.90;774.28;;;12.80;23.90;;;;;;4933661;29;20075;-84
2023/03/30 04:23:33;;;;;;;1999.90;999.90;;;12.80;99.90;;;;;;4951163;28;20448;-85
2023/03/30 04:26:06;;;;;;;1999.90;999.90;;;12.70;99.90;;;;;;4928560;29;20074;-83
2023/03/30 04:28:34;;;;;;;1999.90;999.90;;;12.70;99.90;;;;;;4927080;29;20500;-83
2023/03/30 04:31:05;;;;;;;1999.90;889.05;;;12.80;32.70;;;;;;4931853;29;20669;-82
2023/03/30 04:33:33;;;;;;;1999.90;714.28;;;12.90;1.00;;;;;;4928272;28;20083;-83
2023/03/30 04:36:00;;;;;;;1999.90;999.90;;;12.90;1.00;;;;;;4925044;29;20151;-82
2023/03/30 04:38:26;;;;;;;1999.90;684.67;;;12.90;10.00;;;;;;4927139;29;20059;-82
2023/03/30 04:40:53;;;;;;;1999.90;644.25;;;12.90;1.00;;;;;;4927039;29;20062;-85
2023/03/30 04:43:21;;;;;;;1999.90;999.90;;;12.90;1.00;;;;;;4929738;29;20118;-82
2023/03/30 04:45:51;;;;;;;1999.90;743.63;;;13.10;1.00;;;;;;4927610;29;20079;-82
2023/03/30 04:48:18;;;;;;;1999.90;567.10;;;13.10;99.90;;;;;;4931095;29;20058;-87
2023/03/30 04:50:45;;;;;;;1999.90;677.20;;;13.20;99.90;;;;;;4925035;29;20058;-82
2023/03/30 04:53:11;;;;;;;1999.90;812.50;;;13.20;99.90;;;;;;4929333;29;20048;-82
2023/03/30 04:55:37;;;;;;;1999.90;999.90;;;13.30;99.90;;;;;;4937614;28;20169;-83
2023/03/30 04:58:03;;;;;;;1999.90;669.10;;;13.30;99.90;;;;;;4931177;29;20086;-83
2023/03/30 05:00:29;;;;;;;1999.90;999.90;;;13.40;99.90;;;;;;4921710;29;20047;-86
2023/03/30 05:02:54;;;;;;;1999.90;999.90;;;13.50;99.90;;;;;;4954213;29;20054;-83
2023/03/30 05:05:20;;;;;;;1999.90;693.80;;;13.50;99.90;;;;;;4947748;29;20479;-83
2023/03/30 05:07:46;;;;;;;1999.90;999.90;;;13.50;99.90;;;;;;4927825;29;20048;-82
2023/03/30 05:10:12;;;;;;;1999.90;651.28;;;13.60;99.90;;;;;;4926385;29;20408;-82
2023/03/30 05:12:38;;;;;;;1999.90;999.90;;;13.60;99.90;;;;;;4927324;29;20131;-83
2023/03/30 05:15:04;;;;;;;1999.90;999.90;;;13.70;99.90;;;;;;4929166;29;20055;-82
2023/03/30 05:17:33;;;;;;;1999.90;802.90;;;13.60;99.90;;;;;;4927818;29;20388;-82
2023/03/30 05:19:59;;;;;;;1999.90;659.88;;;13.60;99.90;;;;;;4926492;29;20044;-83
2023/03/30 05:22:25;;;;;;;1999.90;827.35;;;13.60;99.90;;;;;;4932595;29;20060;-82
2023/03/30 05:24:51;;;;;;;1999.90;999.90;;;13.60;99.90;;;;;;4939592;28;20373;-82
2023/03/30 05:27:17;;;;;;;1999.90;556.53;;;13.50;99.90;;;;;;4942526;29;20109;-82
2023/03/30 05:29:43;;;;;;;1999.90;789.85;;;13.50;99.90;;;;;;4941262;28;20039;-83
2023/03/30 05:32:09;;;;;;;1999.90;467.10;;;13.40;1.00;;;;;;4949476;29;20043;-85
2023/03/30 05:34:35;;;;;;;1999.90;999.90;;;13.40;1.00;;;;;;4948147;29;20130;-81
2023/03/30 05:37:01;;;;;;;1999.90;999.90;;;13.20;98.00;;;;;;4953862;28;20396;-82
2023/03/30 05:39:26;;;;;;;1999.90;999.90;;;13.20;99.90;;;;;;4956762;29;20055;-82
2023/03/30 05:41:52;;;;;;;1999.90;736.00;;;13.10;99.90;;;;;;4945176;28;20043;-82
2023/03/30 05:44:18;;;;;;;1999.90;551.13;;;13.10;99.90;;;;;;4939557;29;20054;-83
2023/03/30 05:46:44;;;;;;;1999.90;999.90;;;13.10;99.90;;;;;;4936581;29;20052;-82
2023/03/30 05:49:10;;;;;;;1999.90;999.90;;;13.10;99.90;;;;;;4922801;29;20062;-82
2023/03/30 05:51:35;;;;;;;1999.90;999.90;;;13.10;99.90;;;;;;4920280;28;20052;-82
2023/03/30 05:54:02;;;;;;;1999.90;999.90;;;13.10;81.10;;;;;;4950656;29;20039;-82
2023/03/30 05:56:28;;;;;;;1999.90;999.90;;;13.20;99.90;;;;;;4954055;29;20055;-82
2023/03/30 05:58:54;;;;;;;1999.90;999.90;;;13.20;1.00;;;;;;4940038;29;20443;-82
2023/03/30 06:01:20;;;;;;;1999.90;999.90;;;13.20;1.00;;;;;;4943881;29;20103;-82
2023/03/30 06:03:46;;;;;;;1999.90;999.90;;;13.10;9.20;;;;;;4939269;28;20098;-82
2023/03/30 06:06:12;;;;;;;1999.90;999.90;;;13.20;1.00;;;;;;4927385;29;20040;-82
2023/03/30 06:08:39;;;;;;;1999.90;999.90;;;13.20;1.00;;;;;;4947208;29;20623;-82
2023/03/30 06:11:05;;;;;;;1999.90;999.90;;;13.30;1.00;;;;;;4939831;28;20098;-82
2023/03/30 06:13:32;;;;;;;1999.90;817.92;;;13.30;99.90;;;;;;4942514;29;20054;-82
2023/03/30 06:15:57;;;;;;;1999.90;999.90;;;13.40;99.90;;;;;;4936154;28;20062;-83
2023/03/30 06:18:23;;;;;;;1999.90;999.90;;;13.50;99.90;;;;;;4929624;29;20503;-83
2023/03/30 06:20:50;;;;;;;1999.90;999.90;;;13.40;99.90;;;;;;4950360;29;20113;-82
2023/03/30 06:23:16;;;;;;;1999.90;780.57;;;13.50;99.90;;;;;;4938212;29;20051;-84
2023/03/30 06:25:46;;;;;;;1999.90;999.90;;;13.40;99.90;;;;;;4941129;28;20106;-84
2023/03/30 06:28:12;;;;;;;1999.90;325.35;;;13.40;99.90;;;;;;4954186;29;20511;-82
2023/03/30 06:30:38;;;;;;;1999.90;999.90;;;13.40;99.90;;;;;;4943786;28;20043;-83
2023/03/30 06:33:04;;;;;;;1999.90;999.90;;;13.50;99.90;;;;;;4955946;28;20043;-83
2023/03/30 06:35:29;;;;;;;1999.90;682.47;;;13.50;99.90;;;;;;4940404;29;20066;-92
2023/03/30 06:37:56;;;;;;;1999.90;999.90;;;13.50;99.90;;;;;;4955949;29;20051;-82
2023/03/30 06:40:22;;;;;;;1999.90;999.90;;;13.50;99.90;;;;;;4942791;28;20106;-83
2023/03/30 06:42:48;;;;;;;1999.90;999.90;;;13.60;99.90;;;;;;4940153;29;20055;-82
2023/03/30 06:45:14;;;;;;;1999.90;999.90;;;13.80;99.90;;;;;;4936485;28;20047;-82
2023/03/30 06:47:42;;;;;;;1999.90;999.90;;;14.00;99.90;;;;;;4946199;29;20039;-82
2023/03/30 06:50:08;;;;;;;1999.90;789.70;;;14.10;99.90;;;;;;4940255;29;20127;-84
2023/03/30 06:52:35;;;;;;;1999.90;605.20;;;14.20;99.90;;;;;;4937169;29;20049;-82
2023/03/30 06:55:01;;;;;;;1999.90;999.90;;;14.20;99.90;;;;;;4948402;28;20078;-85
2023/03/30 06:57:27;;;;;;;1999.90;999.90;;;14.30;93.50;;;;;;4949286;28;20047;-83
2023/03/30 06:59:53;;;;;;;1999.90;999.90;;;14.40;77.80;;;;;;4954355;29;20102;-82
2023/03/30 07:02:18;;;;;;;1999.90;999.90;;;14.40;61.90;;;;;;4940609;29;20047;-82
2023/03/30 07:04:45;;;;;;;1999.90;574.03;;;14.50;8.80;;;;;;4942628;28;20514;-83
2023/03/30 07:07:11;;;;;;;1999.90;999.90;;;14.40;19.20;;;;;;4941178;28;20058;-86
2023/03/30 07:09:37;;;;;;;1999.90;999.90;;;14.40;18.90;;;;;;4916469;29;20136;-82
2023/03/30 07:12:03;;;;;;;1999.90;999.90;;;14.30;11.30;;;;;;4927235;29;20123;-83
2023/03/30 07:14:29;;;;;;;1999.90;999.90;;;14.30;17.50;;;;;;4933956;29;20048;-82
2023/03/30 07:16:56;;;;;;;1999.90;999.90;;;14.20;24.20;;;;;;4928941;29;20129;-83
2023/03/30 07:19:22;;;;;;;1999.90;999.90;;;14.10;46.80;;;;;;4954260;29;20385;-82
2023/03/30 07:21:48;;;;;;;1999.90;636.00;;;14.00;95.10;;;;;;4937088;29;20055;-82
2023/03/30 07:24:13;;;;;;;1999.90;999.90;;;14.00;99.90;;;;;;4930553;29;20054;-83
2023/03/30 07:26:39;;;;;;;1999.90;999.90;;;13.90;99.90;;;;;;4938421;29;20047;-83
2023/03/30 07:29:05;;;;;;;1999.90;999.90;;;13.90;99.90;;;;;;4938496;28;20374;-82
2023/03/30 07:31:31;;;;;;;1999.90;999.90;;;13.90;99.90;;;;;;4935630;29;20047;-83
2023/03/30 07:33:57;;;;;;;1865.65;772.28;;;13.90;99.90;;;;;;4911169;29;20184;-86
2023/03/30 07:36:22;;;;;;;1999.90;999.90;;;13.90;64.00;;;;;;4931454;29;20504;-83
2023/03/30 07:38:48;;;;;;;1999.90;999.90;;;13.90;55.10;;;;;;4935931;28;20449;-82
2023/03/30 07:41:15;;;;;;;1999.90;999.90;;;13.90;58.80;;;;;;4929122;29;20058;-83
2023/03/30 07:43:41;;;;;;;1999.90;999.90;;;13.90;50.00;;;;;;4938705;29;20408;-82
2023/03/30 07:46:11;;;;;;;1999.90;999.90;;;13.90;25.00;;;;;;4921958;29;20047;-82
2023/03/30 07:48:38;;;;;;;1999.90;999.90;;;13.80;26.60;;;;;;4923827;28;20060;-85
2023/03/30 07:51:06;;;;;;;1999.90;999.90;;;13.90;8.40;;;;;;4918556;29;20048;-82
2023/03/30 07:53:32;;;;;;;1999.90;999.90;;;13.80;33.30;;;;;;4941218;29;20134;-83
2023/03/30 07:55:58;;;;;;;1999.90;796.53;;;12.50;99.90;;;;;;4918008;29;20465;-83
2023/03/30 07:58:25;;;;;;;1999.90;999.90;;;13.60;99.90;;;;;;4953138;29;20046;-83
2023/03/30 08:00:52;;;;;;;1999.90;999.90;;;13.60;99.90;;;;;;4933332;29;20086;-83
2023/03/30 08:03:20;;;;;;;1999.90;379.13;;;13.50;99.90;;;;;;4941959;28;20079;-82
2023/03/30 08:05:56;;;;;;;;;;;13.50;99.90;;;;;;4952061;28;20155;-82
2023/03/30 08:08:22;;;;;;;1999.90;999.90;;;13.40;99.90;;;;;;4940174;28;20335;-82
2023/03/30 08:10:47;;;;;;;1999.90;816.15;;;13.40;99.90;;;;;;4947480;28;20062;-82
2023/03/30 08:13:13;;;;;;;1999.90;999.90;;;13.40;99.90;;;;;;4951473;29;20373;-81
2023/03/30 08:15:39;;;;;;;1999.90;844.67;;;13.40;99.90;;;;;;4953233;28;20050;-88
2023/03/30 08:18:06;;;;;;;1999.90;614.80;;;13.40;99.90;;;;;;4940106;29;20043;-82
2023/03/30 08:20:36;;;;;;;1999.90;999.90;;;13.30;99.90;;;;;;4951059;28;20114;-90
2023/03/30 08:23:05;;;;;;;1999.90;999.90;;;13.30;99.90;;;;;;4930715;29;20077;-82
2023/03/30 08:25:31;;;;;;;1999.90;999.90;;;13.30;1.00;;;;;;4951550;28;20492;-83
2023/03/30 08:27:57;;;;;;;1999.90;999.90;;;13.30;99.90;;;;;;4933397;29;20043;-82
2023/03/30 08:30:23;;;;;;;1999.90;999.90;;;13.10;1.00;;;;;;4948504;28;20047;-83
2023/03/30 08:32:50;;;;;;;1999.90;999.90;;;13.10;1.00;;;;;;4935313;29;20473;-83
2023/03/30 08:35:16;;;;;;;1999.90;999.90;;;13.10;99.90;;;;;;4952594;28;20079;-83
2023/03/30 08:37:42;;;;;;;1999.90;999.90;;;13.10;1.00;;;;;;4945268;28;20044;-86
2023/03/30 08:40:11;;;;;;;1999.90;999.90;;;13.20;1.00;;;;;;4925963;29;20043;-83
2023/03/30 08:43:03;;;;;;;1999.90;999.90;;;13.10;99.90;;;;;;4944966;29;20440;-83
2023/03/30 08:45:40;;;;;;;1999.90;999.90;;;13.10;99.90;;;;;;4927902;29;20048;-84
2023/03/30 08:48:24;;;;;;;1999.90;999.90;;;13.10;99.90;;;;;;4939050;29;20051;-84
2023/03/30 08:51:15;;;;;;;1999.90;999.90;;;13.10;99.90;;;;;;4933592;29;20051;-85
2023/03/30 08:53:41;;;;;;;1999.90;999.90;;;13.20;1.00;;;;;;4934537;29;20397;-84
2023/03/30 08:56:13;;;;;;;1999.90;999.90;;;13.20;99.90;;;;;;4930038;29;20047;-85
2023/03/30 08:59:03;;;;;;;1999.90;857.10;;;13.20;99.90;;;;;;4934353;29;20050;-83
2023/03/30 09:02:16;;;;;;;1999.90;365.92;;;13.30;99.90;;;;;;4947575;29;20049;-84
2023/03/30 09:05:13;;;;;;;1999.90;999.90;;;13.30;11.80;;;;;;4854349;29;20126;-85
2023/03/30 09:07:46;;;;;;;1999.90;999.90;;;15.30;7.10;;;;;;4926361;29;20047;-84
2023/03/30 09:10:14;;;;;;;1999.90;999.90;;;13.50;99.90;;;;;;4935215;29;20052;-85
2023/03/30 09:12:42;;;;;;;;;;;13.50;99.90;;;;;;4930677;29;20162;-84
2023/03/30 09:15:34;;;;;;;1999.90;999.90;;;13.50;99.90;;;;;;4946728;28;19923;-83
2023/03/30 09:18:09;;;;;;;1999.90;999.90;;;13.60;78.00;;;;;;4947691;28;20064;-83
2023/03/30 09:20:37;;;;;;;1999.90;999.90;;;13.50;87.50;;;;;;4954344;28;20087;-86
2023/03/30 09:23:03;;;;;;;1999.90;999.90;;;13.80;16.90;;;;;;4948076;28;20095;-88
2023/03/30 09:25:43;;;;;;;1999.90;999.90;;;13.80;1.00;;;;;;4940589;29;20381;-88
2023/03/30 09:28:42;;;;;;;1999.90;999.90;;;14.30;15.20;;;;;;4924119;29;20039;-86
2023/03/30 09:31:28;;;;;;;1999.90;999.90;;;14.80;1.00;;;;;;4952193;29;20050;-86
2023/03/30 09:34:05;;;;;;;1999.90;999.90;;;14.70;99.90;;;;;;4947462;29;20075;-83
2023/03/30 09:36:34;;;;;;;1999.90;999.90;;;14.60;99.90;;;;;;4936615;28;20106;-85
2023/03/30 09:38:59;;;;;;;1999.90;999.90;;;14.50;99.90;;;;;;4930782;29;20036;-84
2023/03/30 09:41:39;;;;;;;1999.90;999.90;;;14.60;99.90;;;;;;4946686;29;20479;-84
2023/03/30 09:44:14;;;;;;;1999.90;999.90;;;14.70;99.90;;;;;;4940469;29;20043;-84
2023/03/30 09:46:40;;;;;;;1999.90;999.90;;;14.70;99.90;;;;;;4947900;28;20044;-83
2023/03/30 09:49:15;;;;;;;1999.90;999.90;;;14.60;99.90;;;;;;4943860;28;20268;-82
2023/03/30 09:52:03;;;;;;;1999.90;999.90;;;14.50;99.90;;;;;;4948431;29;20059;-84
2023/03/30 09:54:38;;;;;;;1280.88;523.95;;;12.60;99.90;;;;;;4935333;29;20054;-82
2023/03/30 09:57:05;;;;;;;1999.90;999.90;;;14.50;99.90;;;;;;4936255;29;20047;-82
2023/03/30 09:59:36;;;;;;;1999.90;999.90;;;14.40;99.90;;;;;;4947949;29;20090;-82
2023/03/30 10:02:15;;;;;;;1999.90;999.90;;;14.40;99.90;;;;;;4955819;28;20087;-82
2023/03/30 10:04:53;;;;;;;1999.90;999.90;;;14.20;99.90;;;;;;4942327;29;20051;-81
2023/03/30 10:07:26;;;;;;;1999.90;999.90;;;14.10;99.90;;;;;;4952895;28;20490;-81
2023/03/30 10:09:53;;;;;;;1999.90;999.90;;;14.00;99.90;;;;;;4951022;29;20146;-81
2023/03/30 10:12:19;;;;;;;1999.90;999.90;;;14.10;99.90;;;;;;4945929;28;20381;-84
2023/03/30 10:14:45;;;;;;;1999.90;999.90;;;14.00;99.90;;;;;;4936325;28;20493;-82
2023/03/30 10:17:20;;;;;;;1999.90;999.90;;;14.00;99.90;;;;;;4945577;29;20098;-83
2023/03/30 10:19:45;;;;;;;1999.90;999.90;;;14.10;99.90;;;;;;4937911;29;20126;-81
2023/03/30 10:22:21;;;;;;;1999.90;999.90;;;14.00;99.90;;;;;;4955484;28;20165;-81
2023/03/30 10:24:52;;;;;;;1999.90;999.90;;;14.10;99.90;;;;;;4950411;28;20043;-82
2023/03/30 10:27:18;;;;;;;1999.90;999.90;;;14.10;99.90;;;;;;4936680;28;20055;-82
2023/03/30 10:29:47;;;;;;;1999.90;999.90;;;14.10;99.90;;;;;;4943189;28;20080;-81
2023/03/30 10:32:31;;;;;;;1999.90;999.90;;;14.20;99.90;;;;;;4930708;28;20509;-82
2023/03/30 10:35:00;;;;;;;1999.90;999.90;;;14.30;99.90;;;;;;4933117;29;20408;-81
2023/03/30 10:37:53;;;;;;;1999.90;999.90;;;14.20;99.90;;;;;;4943792;29;20506;-82
2023/03/30 10:40:20;;;;;;;1999.90;999.90;;;14.40;99.90;;;;;;4935478;29;20095;-87
2023/03/30 10:42:50;;;;;;;1999.90;999.90;;;14.60;99.90;;;;;;4951015;29;20452;-80
2023/03/30 10:45:20;;;;;;;1999.90;999.90;;;14.70;99.90;;;;;;4946442;29;20056;-81
2023/03/30 10:47:55;;;;;;;1999.90;999.90;;;14.70;99.90;;;;;;4933245;29;20086;-82
2023/03/30 10:50:21;;;;;;;1999.90;999.90;;;14.70;99.90;;;;;;4940245;29;20047;-84
2023/03/30 10:53:05;;;;;;;1999.90;999.90;;;14.60;99.90;;;;;;4929244;29;20055;-82
2023/03/30 10:55:51;;;;;;;1999.90;999.90;;;14.50;99.90;;;;;;4941986;29;20137;-82
2023/03/30 10:58:55;;;;;;;1999.90;999.90;;;14.50;99.90;;;;;;4951273;28;20055;-84
2023/03/30 11:01:57;;;;;;;1999.90;999.90;;;14.50;99.90;;;;;;4942212;29;20203;-83
2023/03/30 11:05:21;;;;;;;1999.90;999.90;;;14.50;99.90;;;;;;4945992;29;20055;-84
2023/03/30 11:08:19;;;;;;;1999.90;791.47;;;14.40;99.90;;;;;;4915236;29;20397;-82
2023/03/30 11:10:52;;;;;;;1999.90;999.90;;;14.30;99.90;;;;;;4927463;29;20489;-85
2023/03/30 11:13:21;;;;;;;1999.90;999.90;;;14.40;99.90;;;;;;4950089;28;20074;-84
2023/03/30 11:16:14;;;;;;;1999.90;999.90;;;14.40;99.90;;;;;;4943147;29;20430;-83
2023/03/30 11:19:10;;;;;;;1999.90;999.90;;;14.60;99.90;;;;;;4933995;29;20488;-84
2023/03/30 11:21:55;;;;;;;1999.90;999.90;;;14.50;99.90;;;;;;4937440;29;20051;-84
2023/03/30 11:24:24;;;;;;;1999.90;999.90;;;14.60;99.90;;;;;;4945379;29;20054;-84
2023/03/30 11:27:16;;;;;;;1999.90;999.90;;;14.90;99.90;;;;;;4948808;28;20053;-84
2023/03/30 11:29:55;;;;;;;1999.90;999.90;;;15.00;99.90;;;;;;4948375;29;20146;-84
2023/03/30 11:32:54;;;;;;;1999.90;999.90;;;15.10;99.90;;;;;;4940890;29;20539;-84
2023/03/30 11:35:38;;;;;;;1999.90;999.90;;;15.40;99.90;;;;;;4935363;29;20507;-84
2023/03/30 11:38:25;;;;;;;1999.90;999.90;;;15.60;99.90;;;;;;4946315;28;20575;-86
2023/03/30 11:41:21;;;;;;;1999.90;999.90;;;15.60;99.90;;;;;;4950047;29;20488;-88
2023/03/30 11:43:48;;;;;;;1999.90;999.90;;;15.70;99.90;;;;;;4944121;29;20107;-87
2023/03/30 11:46:26;;;;;;;1999.90;999.90;;;15.50;99.90;;;;;;4932933;28;20123;-85
2023/03/30 11:49:03;;;;;;;1999.90;999.90;;;15.50;99.90;;;;;;4944440;29;20567;-84
2023/03/30 11:51:44;;;;;;;1999.90;999.90;;;14.70;99.90;;;;;;4919520;28;20289;-84
2023/03/30 11:54:26;;;;;;;1999.90;999.90;;;16.00;99.90;;;;;;4938321;29;20388;-85
2023/03/30 11:57:23;;;;;;;1861.80;808.63;;;16.00;99.90;;;;;;4951992;29;20043;-90
2023/03/30 12:00:08;;;;;;;1999.90;999.90;;;15.70;99.90;;;;;;4935050;29;20556;-87
2023/03/30 12:02:55;;;;;;;1999.90;999.90;;;15.40;99.90;;;;;;4943414;28;20058;-90
2023/03/30 12:05:39;;;;;;;1999.90;999.90;;;15.30;99.90;;;;;;4951624;29;20134;-88
2023/03/30 12:08:31;;;;;;;1999.90;999.90;;;15.80;99.90;;;;;;4948065;28;20485;-89
2023/03/30 12:11:15;;;;;;;1999.90;999.90;;;16.30;99.90;;;;;;4915331;29;20056;-90
2023/03/30 12:13:41;;;;;;;1999.90;999.90;;;16.30;99.90;;;;;;4922197;29;20105;-90
2023/03/30 12:16:13;;;;;;;1999.90;999.90;;;16.50;99.90;;;;;;4949122;29;20055;-90
2023/03/30 12:19:05;;;;;;;1999.90;999.90;;;16.30;99.90;;;;;;4951505;29;20047;-89
2023/03/30 12:21:34;;;;;;;1999.90;999.90;;;16.00;99.90;;;;;;4952054;28;20054;-90
2023/03/30 12:24:32;;;;;;;1999.90;999.90;;;16.00;99.90;;;;;;4939212;29;20118;-87
2023/03/30 12:26:58;;;;;;;1999.90;999.90;;;15.90;99.90;;;;;;4937483;29;20039;-88